Terminal Aerodrome Forecast
Issued by NWS

Home | Current Version | Previous Version | Text Only | Print | Product List | Glossary On
Versions: 1 2 3 4 5 6 7 8 9 10 11 12 13 14 15
000
FTUS46 KOTX 252320
TAFPUW
TAF
KPUW 252320Z 2600/2624 18014G20KT P6SM VCSH SCT070 BKN090 BKN120
     FM260300 16016G22KT P6SM -SHRA SCT030 BKN050 OVC080
     FM260700 20018G26KT P6SM VCSH SCT040 BKN060
     FM261000 23028G38KT P6SM BKN080 BKN120
     FM261800 22020G30KT P6SM SCT080 BKN120=

USA.gov is the U.S. government's official web portal to all federal, state and local government web resources and services.